Terminal Aerodrome Forecast
Issued by NWS

Home | Current Version | Previous Version | Text Only | Print | Product List | Glossary On
Versions: 1 2 3 4 5 6 7 8 9 10 11 12 13
000
FTUS45 KMSO 040520
TAFSMN
TAF
KSMN 040520Z 0406/0506 VRB05KT P6SM VCSH OVC060
     FM041600 VRB03KT 5SM -SN BR OVC035
     FM042000 23006KT 2SM -SN BKN020 OVC030
     FM050200 31015G25KT P6SM VCSH SCT030 BKN060
      AMD LTD TO CLD VIS AND WIND=

USA.gov is the U.S. government's official web portal to all federal, state and local government web resources and services.